logo
Search for airport 
image banner adimage banner adimage banner ad
image banner ad

SHCM - Corporativo Mutual

Located in Santiago, Chile

ICAO - SHCM, IATA -

Data provided by Airmate  

General information

Coordinates: S33°26'25" W70°38'16"
Elevation is 2100 feet MSL.
 
View others Airports in Santiago Metropolitan Region

Operational data

Special qualification required
Current time UTC:
Current local time:
Weather at : SCTB - Eulogio Sanchez - Tobalaba ( 9 km )
METAR: SCTB 231800Z 25004KT 7000 OVC083 12/06 Q1022
View NOTAMs / SUP AIP / TFR affecting this airport [VIEW]
Communications frequencies: [VIEW]

Runways:

Airport contact information

Address: Santiago Chile

Satellite view of SHCM